createdAt,value
2022-12-04T00:00:06.126Z,1023.19
2022-12-04T00:10:00.843Z,1023.15
2022-12-04T00:30:02.329Z,1023.06
2022-12-04T00:45:00.929Z,1022.94
2022-12-04T01:00:01.156Z,1022.93
2022-12-04T01:15:01.193Z,1022.99
2022-12-04T01:25:01.236Z,1023.00
2022-12-04T01:30:02.853Z,1023.00
2022-12-04T01:45:02.087Z,1022.95
2022-12-04T02:00:03.204Z,1023.00
2022-12-04T02:15:01.367Z,1022.96
2022-12-04T02:45:01.076Z,1022.92
2022-12-04T03:00:03.555Z,1022.87
2022-12-04T03:15:01.036Z,1022.75
2022-12-04T03:30:01.206Z,1022.81
2022-12-04T03:45:00.974Z,1022.82
2022-12-04T03:55:02.924Z,1022.86
2022-12-04T04:00:03.825Z,1022.86
2022-12-04T04:15:01.036Z,1022.92
2022-12-04T04:30:00.989Z,1022.93
2022-12-04T04:45:07.317Z,1022.86
2022-12-04T05:00:03.700Z,1022.90
2022-12-04T05:05:07.002Z,1022.85
2022-12-04T05:15:01.263Z,1022.89
2022-12-04T05:30:01.056Z,1022.93
2022-12-04T05:45:01.942Z,1022.95
2022-12-04T06:00:02.586Z,1022.98
2022-12-04T06:15:01.420Z,1023.02
2022-12-04T06:30:06.071Z,1023.11
2022-12-04T06:40:00.996Z,1023.17
2022-12-04T06:45:00.932Z,1023.18
2022-12-04T06:55:01.567Z,1023.21
2022-12-04T07:00:02.793Z,1023.21
2022-12-04T07:15:01.366Z,1023.17
2022-12-04T07:30:00.853Z,1023.25
2022-12-04T07:35:00.950Z,1023.41
2022-12-04T07:45:00.693Z,1023.28
2022-12-04T08:00:00.802Z,1023.27
2022-12-04T08:15:05.797Z,1023.33
2022-12-04T08:30:01.297Z,1023.31
2022-12-04T08:40:01.201Z,1023.35
2022-12-04T08:45:00.898Z,1023.36
2022-12-04T09:00:01.640Z,1023.42
2022-12-04T09:05:11.124Z,1023.41
2022-12-04T09:15:01.478Z,1023.50
2022-12-04T09:20:03.559Z,1023.50
2022-12-04T09:30:01.351Z,1023.56
2022-12-04T09:35:01.318Z,1023.60
2022-12-04T09:45:01.481Z,1023.61
2022-12-04T09:55:01.722Z,1023.55
2022-12-04T10:00:02.991Z,1023.55
2022-12-04T10:05:01.204Z,1023.47
2022-12-04T10:15:01.142Z,1023.43
2022-12-04T10:25:01.515Z,1023.45
2022-12-04T10:30:01.473Z,1023.45
2022-12-04T10:35:02.272Z,1023.33
2022-12-04T10:40:01.105Z,1023.33
2022-12-04T10:45:01.780Z,1023.17
2022-12-04T11:00:03.421Z,1023.13
2022-12-04T11:05:01.018Z,1023.15
2022-12-04T11:15:00.931Z,1023.13
2022-12-04T11:20:02.039Z,1023.13
2022-12-04T11:30:01.276Z,1023.10
2022-12-04T11:35:01.241Z,1023.09
2022-12-04T11:40:01.259Z,1023.09
2022-12-04T11:45:01.085Z,1023.04
2022-12-04T11:50:06.357Z,1023.04
2022-12-04T12:00:02.807Z,1023.00
2022-12-04T12:10:01.071Z,1022.87
2022-12-04T12:15:01.195Z,1022.85
2022-12-04T12:30:06.309Z,1022.70
2022-12-04T12:45:01.274Z,1022.52
2022-12-04T13:00:03.345Z,1022.48
2022-12-04T13:05:01.248Z,1022.52
2022-12-04T13:15:02.052Z,1022.52
2022-12-04T13:25:01.129Z,1022.50
2022-12-04T13:30:01.286Z,1022.50
2022-12-04T13:45:01.326Z,1022.48
2022-12-04T14:00:03.377Z,1022.36
2022-12-04T14:10:01.075Z,1022.40
2022-12-04T14:15:01.296Z,1022.47
2022-12-04T14:30:01.227Z,1022.48
2022-12-04T14:40:00.979Z,1022.50
2022-12-04T14:45:01.374Z,1022.43
2022-12-04T15:00:15.886Z,1022.56
2022-12-04T15:15:01.323Z,1022.67
2022-12-04T15:30:01.413Z,1022.63
2022-12-04T15:35:02.179Z,1022.62
2022-12-04T15:45:02.101Z,1022.62
2022-12-04T15:55:01.436Z,1022.68
2022-12-04T16:00:08.273Z,1022.68
2022-12-04T16:15:01.452Z,1022.57
2022-12-04T16:30:01.389Z,1022.50
2022-12-04T16:45:01.455Z,1022.50
2022-12-04T17:00:02.871Z,1022.43
2022-12-04T17:15:01.442Z,1022.41
2022-12-04T17:30:01.175Z,1022.29
2022-12-04T17:45:01.261Z,1022.33
2022-12-04T18:00:03.539Z,1022.38
2022-12-04T18:15:11.238Z,1022.55
2022-12-04T18:25:13.011Z,1022.59
2022-12-04T18:30:06.397Z,1022.59
2022-12-04T18:45:06.614Z,1022.73
2022-12-04T18:50:06.448Z,1022.73
2022-12-04T19:00:02.827Z,1022.75
2022-12-04T19:15:01.557Z,1022.83
2022-12-04T19:30:01.201Z,1022.88
2022-12-04T19:35:01.887Z,1022.92
2022-12-04T19:45:01.540Z,1022.95
2022-12-04T20:00:03.924Z,1022.99
2022-12-04T20:05:01.171Z,1022.91
2022-12-04T20:15:01.906Z,1022.92
2022-12-04T20:25:01.905Z,1022.94
2022-12-04T20:30:01.501Z,1022.94
2022-12-04T20:45:01.636Z,1022.97
2022-12-04T21:00:03.960Z,1023.00
2022-12-04T21:15:01.642Z,1022.89
2022-12-04T21:20:08.134Z,1022.89
2022-12-04T21:30:01.701Z,1022.72
2022-12-04T21:45:07.036Z,1022.63
2022-12-04T22:00:03.520Z,1022.73
2022-12-04T22:15:01.654Z,1022.63
2022-12-04T22:30:02.886Z,1022.62
2022-12-04T22:45:06.436Z,1022.61
2022-12-04T23:00:03.743Z,1022.60
2022-12-04T23:15:01.324Z,1022.24
2022-12-04T23:30:01.388Z,1022.30
2022-12-04T23:45:01.428Z,1022.14
